createdAt,value
2023-02-09T07:23:04.923Z,-2.00
2023-02-09T07:39:04.732Z,-1.00
2023-02-09T07:43:04.700Z,0.08
2023-02-09T07:44:04.681Z,0.17
2023-02-09T07:45:04.666Z,0.37
2023-02-09T07:46:04.668Z,0.23
2023-02-09T07:58:04.525Z,0.02
2023-02-09T07:59:04.520Z,0.23
2023-02-09T08:00:04.504Z,0.50
2023-02-09T08:01:04.484Z,0.63
2023-02-09T08:02:04.616Z,0.93
2023-02-09T08:03:04.468Z,1.07
2023-02-09T08:04:04.460Z,1.27
2023-02-09T08:05:04.490Z,1.19
2023-02-09T08:06:04.450Z,1.30
2023-02-09T08:07:04.479Z,1.28
2023-02-09T08:08:04.412Z,1.44
2023-02-09T08:09:04.404Z,1.38
2023-02-09T08:10:04.389Z,1.46
2023-02-09T08:11:04.437Z,1.84
2023-02-09T08:12:04.488Z,1.99
2023-02-09T08:13:04.361Z,2.56
2023-02-09T08:14:04.342Z,3.14
2023-02-09T08:15:04.360Z,3.65
2023-02-09T08:16:04.412Z,3.99
2023-02-09T08:17:04.316Z,3.84
2023-02-09T08:18:04.312Z,3.15
2023-02-09T08:19:04.296Z,2.50
2023-02-09T08:20:04.318Z,2.35
2023-02-09T08:21:04.274Z,2.46
2023-02-09T08:22:04.278Z,2.38
2023-02-09T08:23:04.268Z,2.46
2023-02-09T08:24:04.242Z,2.90
2023-02-09T08:25:04.224Z,3.51
2023-02-09T08:26:04.220Z,4.04
2023-02-09T08:27:04.206Z,4.49
2023-02-09T08:28:04.236Z,4.84
2023-02-09T08:29:04.184Z,4.99
2023-02-09T08:30:04.184Z,5.15
2023-02-09T08:31:04.282Z,5.39
2023-02-09T08:32:04.209Z,5.15
2023-02-09T08:33:04.140Z,4.43
2023-02-09T08:34:04.126Z,3.84
2023-02-09T08:35:04.120Z,3.41
2023-02-09T08:36:04.106Z,3.05
2023-02-09T08:37:04.103Z,3.14
2023-02-09T08:38:04.075Z,3.41
2023-02-09T08:39:04.099Z,4.05
2023-02-09T08:40:04.075Z,3.95
2023-02-09T08:41:04.043Z,3.97
2023-02-09T08:42:04.031Z,4.46
2023-02-09T08:43:04.023Z,5.20
2023-02-09T08:44:04.031Z,6.06
2023-02-09T08:45:04.007Z,6.80
2023-02-09T08:46:04.143Z,7.21
2023-02-09T08:47:04.206Z,7.33
2023-02-09T08:48:03.977Z,7.01
2023-02-09T08:49:03.965Z,5.98
2023-02-09T08:50:03.949Z,5.28
2023-02-09T08:51:03.963Z,4.97
2023-02-09T08:52:03.934Z,4.59
2023-02-09T08:53:03.915Z,4.27
2023-02-09T08:54:03.903Z,4.46
2023-02-09T08:55:03.924Z,4.77
2023-02-09T08:56:03.883Z,5.11
2023-02-09T08:57:03.871Z,5.61
2023-02-09T08:58:03.898Z,5.46
2023-02-09T08:59:03.857Z,5.46
2023-02-09T09:00:03.850Z,6.16
2023-02-09T09:01:03.910Z,6.92
2023-02-09T09:02:03.826Z,7.06
2023-02-09T09:03:03.802Z,7.24
2023-02-09T09:04:03.873Z,7.18
2023-02-09T09:05:03.792Z,6.69
2023-02-09T09:06:03.771Z,6.96
2023-02-09T09:07:03.757Z,7.55
2023-02-09T09:08:03.749Z,6.90
2023-02-09T09:09:03.783Z,7.18
2023-02-09T09:10:03.726Z,7.42
2023-02-09T09:11:03.794Z,6.87
2023-02-09T09:12:03.710Z,6.60
2023-02-09T09:13:03.696Z,6.23
2023-02-09T09:14:03.688Z,6.19
2023-02-09T09:15:03.704Z,5.49
2023-02-09T09:16:05.182Z,5.69
2023-02-09T09:17:03.647Z,5.61
2023-02-09T09:18:03.638Z,5.67
2023-02-09T09:19:03.628Z,6.26
2023-02-09T09:20:03.626Z,7.03
2023-02-09T09:21:03.614Z,7.44
2023-02-09T09:22:03.610Z,7.98
2023-02-09T09:23:03.596Z,8.39
2023-02-09T09:24:03.575Z,8.57
2023-02-09T09:25:03.574Z,8.89
2023-02-09T09:26:03.550Z,8.88
2023-02-09T09:27:03.590Z,8.34
2023-02-09T09:28:03.595Z,8.34
2023-02-09T09:29:03.548Z,8.25
2023-02-09T09:30:03.519Z,8.52
2023-02-09T09:31:03.504Z,8.00
2023-02-09T09:32:03.613Z,8.27
2023-02-09T09:33:03.517Z,8.52
2023-02-09T09:34:03.471Z,8.85
2023-02-09T09:35:03.521Z,8.52
2023-02-09T09:36:03.449Z,8.38
2023-02-09T09:37:03.427Z,8.23
2023-02-09T09:38:03.438Z,8.67
2023-02-09T09:39:03.406Z,9.50
2023-02-09T09:40:03.393Z,9.68
2023-02-09T09:41:03.384Z,9.07
2023-02-09T09:42:03.381Z,9.21
2023-02-09T09:43:03.389Z,9.66
2023-02-09T09:44:03.360Z,9.46
2023-02-09T09:45:03.360Z,9.39
2023-02-09T09:46:03.440Z,8.86
2023-02-09T09:47:03.319Z,8.19
2023-02-09T09:48:03.306Z,7.85
2023-02-09T09:49:03.299Z,7.77
2023-02-09T09:50:03.283Z,7.46
2023-02-09T09:51:03.267Z,8.11
2023-02-09T09:52:03.266Z,8.63
2023-02-09T09:53:03.243Z,9.13
2023-02-09T09:54:03.238Z,9.91
2023-02-09T09:55:03.226Z,9.83
2023-02-09T09:56:03.209Z,8.42
2023-02-09T09:57:03.246Z,8.70
2023-02-09T09:58:03.192Z,9.46
2023-02-09T09:59:03.273Z,9.51
2023-02-09T10:00:03.188Z,8.77
2023-02-09T10:01:03.252Z,8.67
2023-02-09T10:02:03.158Z,8.78
2023-02-09T10:03:03.171Z,8.72
2023-02-09T10:04:03.125Z,9.23
2023-02-09T10:05:03.123Z,8.98
2023-02-09T10:06:03.100Z,9.58
2023-02-09T10:07:03.104Z,8.95
2023-02-09T10:08:03.079Z,9.10
2023-02-09T10:09:03.065Z,9.31
2023-02-09T10:10:03.055Z,8.95
2023-02-09T10:11:03.055Z,9.35
2023-02-09T10:12:03.032Z,9.83
2023-02-09T10:13:03.024Z,10.35
2023-02-09T10:14:03.016Z,10.26
2023-02-09T10:15:03.028Z,9.47
2023-02-09T10:16:02.994Z,8.98
2023-02-09T10:17:03.050Z,9.11
2023-02-09T10:18:02.972Z,9.10
2023-02-09T10:19:02.956Z,8.83
2023-02-09T10:20:02.942Z,8.67
2023-02-09T10:21:02.940Z,8.95
2023-02-09T10:22:02.924Z,8.80
2023-02-09T10:23:02.921Z,9.13
2023-02-09T10:24:02.907Z,9.17
2023-02-09T10:25:02.892Z,8.80
2023-02-09T10:26:02.874Z,8.89
2023-02-09T10:27:02.874Z,8.83
2023-02-09T10:28:02.909Z,8.50
2023-02-09T10:29:02.853Z,9.03
2023-02-09T10:30:02.833Z,8.98
2023-02-09T10:31:02.974Z,9.04
2023-02-09T10:32:02.864Z,9.01
2023-02-09T10:33:02.805Z,9.90
2023-02-09T10:34:02.811Z,10.43
2023-02-09T10:35:02.778Z,10.61
2023-02-09T10:36:02.797Z,10.16
2023-02-09T10:37:02.748Z,9.47
2023-02-09T10:38:02.745Z,9.56
2023-02-09T10:39:02.740Z,9.54
2023-02-09T10:40:02.712Z,9.61
2023-02-09T10:41:02.708Z,9.47
2023-02-09T10:42:02.696Z,9.44
2023-02-09T10:43:02.691Z,9.51
2023-02-09T10:44:02.670Z,9.43
2023-02-09T10:45:02.665Z,9.69
2023-02-09T10:46:02.709Z,9.54
2023-02-09T10:47:02.659Z,9.43
2023-02-09T10:48:02.624Z,9.44
2023-02-09T10:49:02.617Z,9.31
2023-02-09T10:50:02.610Z,9.35
2023-02-09T10:51:02.617Z,9.14
2023-02-09T10:52:02.584Z,9.23
2023-02-09T10:53:02.576Z,9.58
2023-02-09T10:54:02.556Z,9.81
2023-02-09T10:55:02.570Z,9.64
2023-02-09T10:56:02.537Z,9.88
2023-02-09T10:57:02.517Z,10.35
2023-02-09T10:58:02.509Z,10.82
2023-02-09T10:59:02.502Z,11.33
2023-02-09T11:00:02.514Z,10.89
2023-02-09T11:01:02.543Z,11.12
2023-02-09T11:02:02.486Z,11.10
2023-02-09T11:03:02.557Z,10.89
2023-02-09T11:04:02.503Z,10.41
2023-02-09T11:05:02.443Z,10.05
2023-02-09T11:06:02.426Z,10.20
2023-02-09T11:07:02.423Z,10.17
2023-02-09T11:08:02.419Z,10.23
2023-02-09T11:09:02.401Z,10.23
2023-02-09T11:10:02.390Z,10.16
2023-02-09T11:11:02.387Z,10.78
2023-02-09T11:12:02.368Z,11.48
2023-02-09T11:13:02.348Z,11.38
2023-02-09T11:14:02.400Z,10.86
2023-02-09T11:15:02.329Z,11.11
2023-02-09T11:16:02.374Z,11.92
2023-02-09T11:17:02.316Z,11.73
2023-02-09T11:18:02.300Z,11.80
2023-02-09T11:19:02.307Z,11.95
2023-02-09T11:20:02.273Z,10.92
2023-02-09T11:21:02.269Z,10.03
2023-02-09T11:22:02.261Z,10.34
2023-02-09T11:23:02.238Z,10.63
2023-02-09T11:24:02.235Z,11.40
2023-02-09T11:25:02.243Z,12.20
2023-02-09T11:26:02.208Z,12.61
2023-02-09T11:27:02.192Z,13.05
2023-02-09T11:28:02.272Z,12.29
2023-02-09T11:29:02.173Z,11.64
2023-02-09T11:30:02.235Z,10.59
2023-02-09T11:31:02.291Z,9.94
2023-02-09T11:32:02.194Z,9.68
2023-02-09T11:33:02.123Z,9.61
2023-02-09T11:34:02.120Z,9.72
2023-02-09T11:35:02.135Z,9.50
2023-02-09T11:36:02.103Z,9.22
2023-02-09T11:37:02.094Z,9.22
2023-02-09T11:38:02.094Z,9.03
2023-02-09T11:39:02.066Z,8.93
2023-02-09T11:40:02.059Z,9.32
2023-02-09T11:41:02.042Z,9.15
2023-02-09T11:42:02.029Z,9.26
2023-02-09T11:43:02.029Z,9.41
2023-02-09T11:44:02.005Z,9.65
2023-02-09T11:45:02.003Z,9.58
2023-02-09T11:46:02.068Z,9.51
2023-02-09T11:47:01.977Z,9.17
2023-02-09T11:48:01.962Z,9.29
2023-02-09T11:49:01.958Z,9.31
2023-02-09T11:50:01.936Z,9.39
2023-02-09T11:51:01.987Z,9.50
2023-02-09T11:52:01.919Z,9.66
2023-02-09T11:53:01.901Z,9.71
2023-02-09T11:54:01.891Z,9.68
2023-02-09T11:55:01.887Z,10.21
2023-02-09T11:56:01.875Z,10.75
2023-02-09T11:57:01.873Z,10.51
2023-02-09T11:58:01.842Z,10.10
2023-02-09T11:59:01.844Z,10.23
2023-02-09T12:00:01.826Z,10.38
2023-02-09T12:01:14.385Z,10.26
2023-02-09T12:02:01.804Z,10.28
2023-02-09T12:03:01.889Z,9.88
2023-02-09T12:04:01.898Z,9.85
2023-02-09T12:05:01.785Z,10.05
2023-02-09T12:06:01.770Z,9.53
2023-02-09T12:07:01.785Z,9.90
2023-02-09T12:08:01.760Z,9.77
2023-02-09T12:09:01.729Z,9.66
2023-02-09T12:10:01.748Z,9.80
2023-02-09T12:11:01.700Z,9.74
2023-02-09T12:12:01.699Z,9.50
2023-02-09T12:13:01.683Z,9.66
2023-02-09T12:14:01.673Z,9.84
2023-02-09T12:15:01.660Z,9.84
2023-02-09T12:16:01.706Z,10.18
2023-02-09T12:17:01.643Z,11.02
2023-02-09T12:18:01.631Z,11.74
2023-02-09T12:19:01.609Z,12.28
2023-02-09T12:20:01.613Z,12.73
2023-02-09T12:21:01.589Z,12.57
2023-02-09T12:22:01.582Z,12.83
2023-02-09T12:23:01.621Z,12.37
2023-02-09T12:24:01.560Z,11.31
2023-02-09T12:25:01.562Z,9.98
2023-02-09T12:26:01.555Z,9.31
2023-02-09T12:27:01.576Z,9.03
2023-02-09T12:28:01.589Z,8.96
2023-02-09T12:29:01.544Z,8.74
2023-02-09T12:30:01.488Z,8.65
2023-02-09T12:31:01.647Z,8.46
2023-02-09T12:32:01.603Z,8.52
2023-02-09T12:33:01.459Z,8.72
2023-02-09T12:34:01.437Z,8.63
2023-02-09T12:35:01.437Z,8.49
2023-02-09T12:36:01.417Z,8.37
2023-02-09T12:37:01.417Z,8.31
2023-02-09T12:38:01.397Z,8.15
2023-02-09T12:39:05.220Z,8.33
2023-02-09T12:40:01.394Z,8.50
2023-02-09T12:41:01.362Z,8.60
2023-02-09T12:42:01.346Z,8.83
2023-02-09T12:43:01.336Z,9.25
2023-02-09T12:44:01.323Z,8.81
2023-02-09T12:45:01.338Z,8.09
2023-02-09T12:46:01.424Z,7.60
2023-02-09T12:47:01.291Z,7.57
2023-02-09T12:48:01.290Z,7.61
2023-02-09T12:49:01.294Z,7.29
2023-02-09T12:50:01.295Z,7.01
2023-02-09T12:51:01.268Z,6.69
2023-02-09T12:52:01.245Z,7.07
2023-02-09T12:53:01.301Z,7.80
2023-02-09T12:54:01.230Z,8.44
2023-02-09T12:55:01.227Z,8.62
2023-02-09T12:56:01.214Z,8.65
2023-02-09T12:57:01.179Z,8.74
2023-02-09T12:58:01.181Z,8.89
2023-02-09T12:59:01.164Z,8.72
2023-02-09T13:00:01.258Z,8.42
2023-02-09T13:01:01.167Z,7.82
2023-02-09T13:02:01.123Z,7.61
2023-02-09T13:03:01.121Z,7.91
2023-02-09T13:04:01.206Z,7.91
2023-02-09T13:05:01.109Z,7.86
2023-02-09T13:06:01.113Z,7.42
2023-02-09T13:07:01.075Z,7.06
2023-02-09T13:08:01.068Z,6.74
2023-02-09T13:09:01.048Z,7.04
2023-02-09T13:10:01.039Z,7.60
2023-02-09T13:11:01.058Z,8.18
2023-02-09T13:12:01.023Z,8.56
2023-02-09T13:13:01.015Z,9.06
2023-02-09T13:14:01.002Z,9.56
2023-02-09T13:15:00.989Z,10.06
2023-02-09T13:16:00.988Z,10.36
2023-02-09T13:17:00.968Z,10.64
2023-02-09T13:18:00.966Z,10.61
2023-02-09T13:19:00.960Z,10.60
2023-02-09T13:20:00.939Z,10.64
2023-02-09T13:21:00.918Z,10.77
2023-02-09T13:22:00.967Z,10.93
2023-02-09T13:23:00.900Z,11.08
2023-02-09T13:24:00.884Z,11.19
2023-02-09T13:25:00.945Z,11.27
2023-02-09T13:26:00.861Z,11.30
2023-02-09T13:27:00.887Z,10.74
2023-02-09T13:28:00.920Z,9.96
2023-02-09T13:29:08.625Z,9.26
2023-02-09T13:30:00.827Z,8.83
2023-02-09T13:31:00.810Z,8.47
2023-02-09T13:32:01.001Z,8.12
2023-02-09T13:33:02.863Z,7.91
2023-02-09T13:34:00.783Z,7.93
2023-02-09T13:35:00.791Z,8.01
2023-02-09T13:36:00.753Z,7.86
2023-02-09T13:37:00.761Z,7.61
2023-02-09T13:38:00.751Z,7.67
2023-02-09T13:39:00.719Z,7.57
2023-02-09T13:40:00.794Z,7.28
2023-02-09T13:41:00.707Z,7.13
2023-02-09T13:42:00.733Z,7.28
2023-02-09T13:43:00.749Z,7.40
2023-02-09T13:44:00.691Z,7.25
2023-02-09T13:45:00.653Z,7.13
2023-02-09T13:46:00.680Z,7.03
2023-02-09T13:47:00.631Z,7.01
2023-02-09T13:48:00.662Z,6.91
2023-02-09T13:49:00.621Z,6.99
2023-02-09T13:50:00.602Z,6.87
2023-02-09T13:51:00.585Z,6.97
2023-02-09T13:52:00.581Z,7.06
2023-02-09T13:53:00.589Z,6.91
2023-02-09T13:54:00.621Z,6.84
2023-02-09T13:55:00.544Z,6.92
2023-02-09T13:56:00.701Z,7.24
2023-02-09T13:57:00.529Z,7.58
2023-02-09T13:58:00.559Z,7.82
2023-02-09T13:59:00.527Z,8.01
2023-02-09T14:00:00.491Z,7.93
2023-02-09T14:01:00.557Z,7.68
2023-02-09T14:02:00.469Z,7.36
2023-02-09T14:03:00.550Z,7.04
2023-02-09T14:04:00.454Z,6.87
2023-02-09T14:05:00.431Z,6.90
2023-02-09T14:06:00.431Z,7.00
2023-02-09T14:07:00.407Z,7.15
2023-02-09T14:08:00.398Z,7.25
2023-02-09T14:09:00.388Z,7.34
2023-02-09T14:10:00.380Z,7.52
2023-02-09T14:11:00.369Z,7.37
2023-02-09T14:12:00.356Z,7.04
2023-02-09T14:13:00.335Z,6.88
2023-02-09T14:14:00.327Z,6.69
2023-02-09T14:15:00.360Z,6.51
2023-02-09T14:16:00.303Z,6.51
2023-02-09T14:17:00.309Z,6.66
2023-02-09T14:18:00.278Z,6.82
2023-02-09T14:19:00.265Z,6.92
2023-02-09T14:20:00.318Z,6.87
2023-02-09T14:21:00.254Z,7.00
2023-02-09T14:22:00.235Z,7.06
2023-02-09T14:23:00.269Z,7.10
2023-02-09T14:24:00.205Z,7.13
2023-02-09T14:25:00.200Z,7.19
2023-02-09T14:26:00.185Z,7.22
2023-02-09T14:27:00.171Z,7.24
2023-02-09T14:28:00.212Z,7.00
2023-02-09T14:29:00.151Z,6.63
2023-02-09T14:30:00.134Z,6.39
2023-02-09T14:31:00.265Z,6.36
2023-02-09T14:32:00.168Z,6.31
2023-02-09T14:33:00.125Z,6.21
2023-02-09T14:34:00.125Z,6.16
2023-02-09T14:35:00.139Z,6.29
2023-02-09T14:36:00.104Z,6.37
2023-02-09T14:37:00.072Z,6.37
2023-02-09T14:38:00.237Z,6.36
2023-02-09T14:39:00.053Z,6.42
2023-02-09T14:40:00.052Z,6.51
2023-02-09T14:41:00.026Z,6.64
2023-02-09T14:42:00.010Z,6.66
2023-02-09T14:43:00.018Z,6.52
2023-02-09T14:43:59.989Z,6.42
2023-02-09T14:44:59.990Z,6.52
2023-02-09T14:46:00.001Z,6.48
2023-02-09T14:47:00.003Z,6.45
2023-02-09T14:47:59.945Z,6.27
2023-02-09T14:48:59.941Z,6.08
2023-02-09T14:49:59.944Z,5.97
2023-02-09T14:50:59.912Z,5.93
2023-02-09T14:51:59.896Z,5.98
2023-02-09T14:52:59.897Z,5.88
2023-02-09T14:53:59.883Z,5.79
2023-02-09T14:54:59.863Z,5.70
2023-02-09T14:55:59.892Z,5.73
2023-02-09T14:56:59.844Z,5.87
2023-02-09T14:57:59.838Z,5.87
2023-02-09T14:58:59.827Z,5.77
2023-02-09T14:59:59.816Z,5.72
2023-02-09T15:01:00.032Z,5.42
2023-02-09T15:01:59.793Z,5.24
2023-02-09T15:03:00.469Z,5.14
2023-02-09T15:03:59.779Z,5.08
2023-02-09T15:04:59.755Z,5.06
2023-02-09T15:05:59.749Z,5.11
2023-02-09T15:06:59.752Z,5.20
2023-02-09T15:07:59.735Z,5.31
2023-02-09T15:08:59.726Z,5.43
2023-02-09T15:09:59.705Z,5.47
2023-02-09T15:10:59.696Z,5.43
2023-02-09T15:11:59.693Z,5.43
2023-02-09T15:12:59.676Z,5.47
2023-02-09T15:13:59.683Z,5.42
2023-02-09T15:14:59.642Z,5.35
2023-02-09T15:15:59.706Z,5.36
2023-02-09T15:16:59.633Z,5.38
2023-02-09T15:17:59.635Z,5.32
2023-02-09T15:18:59.646Z,5.32
2023-02-09T15:19:59.596Z,5.32
2023-02-09T15:20:59.653Z,5.36
2023-02-09T15:22:07.307Z,5.35
2023-02-09T15:22:59.607Z,5.32
2023-02-09T15:23:59.552Z,5.28
2023-02-09T15:24:59.542Z,5.29
2023-02-09T15:25:59.526Z,5.20
2023-02-09T15:26:59.532Z,5.28
2023-02-09T15:27:59.605Z,5.32
2023-02-09T15:28:59.490Z,5.24
2023-02-09T15:30:01.695Z,5.23
2023-02-09T15:30:59.505Z,5.18
2023-02-09T15:31:59.457Z,5.08
2023-02-09T15:32:59.449Z,4.99
2023-02-09T15:33:59.447Z,4.88
2023-02-09T15:34:59.440Z,4.87
2023-02-09T15:35:59.528Z,4.84
2023-02-09T15:36:59.404Z,4.85
2023-02-09T15:37:59.412Z,4.90
2023-02-09T15:38:59.397Z,4.85
2023-02-09T15:39:59.371Z,4.85
2023-02-09T15:40:59.355Z,4.84
2023-02-09T15:41:59.348Z,4.79
2023-02-09T15:42:59.326Z,4.74
2023-02-09T15:43:59.317Z,4.74
2023-02-09T15:44:59.315Z,4.75
2023-02-09T15:45:59.362Z,4.74
2023-02-09T15:46:59.295Z,4.69
2023-02-09T15:47:59.281Z,4.66
2023-02-09T15:48:59.269Z,4.61
2023-02-09T15:49:59.259Z,4.57
2023-02-09T15:50:59.282Z,4.56
2023-02-09T15:51:59.256Z,4.56
2023-02-09T15:52:59.219Z,4.57
2023-02-09T15:53:59.207Z,4.57
2023-02-09T15:54:59.235Z,4.59
2023-02-09T15:55:59.181Z,4.57
2023-02-09T15:56:59.178Z,4.57
2023-02-09T15:57:59.166Z,4.54
2023-02-09T15:58:59.152Z,4.48
2023-02-09T15:59:59.148Z,4.45
2023-02-09T16:00:59.123Z,4.39
2023-02-09T16:02:00.362Z,4.41
2023-02-09T16:02:59.184Z,4.46
2023-02-09T16:04:12.723Z,4.43
2023-02-09T16:04:59.089Z,4.28
2023-02-09T16:05:59.066Z,4.23
2023-02-09T16:07:01.095Z,4.36
2023-02-09T16:07:59.052Z,4.51
2023-02-09T16:08:59.039Z,4.66
2023-02-09T16:09:59.029Z,4.63
2023-02-09T16:10:59.020Z,4.41
2023-02-09T16:11:59.016Z,4.24
2023-02-09T16:12:58.985Z,4.20
2023-02-09T16:13:59.002Z,4.17
2023-02-09T16:14:58.966Z,4.13
2023-02-09T16:16:11.323Z,4.10
2023-02-09T16:16:58.988Z,4.07
2023-02-09T16:17:58.936Z,4.04
2023-02-09T16:18:58.932Z,4.07
2023-02-09T16:19:58.905Z,4.13
2023-02-09T16:20:58.898Z,4.17
2023-02-09T16:21:58.885Z,4.20
2023-02-09T16:23:00.915Z,4.23
2023-02-09T16:23:58.885Z,4.24
2023-02-09T16:24:58.859Z,4.21
2023-02-09T16:26:01.343Z,4.16
2023-02-09T16:26:58.849Z,4.17
2023-02-09T16:27:58.873Z,4.13
2023-02-09T16:28:58.811Z,4.17
2023-02-09T16:29:58.796Z,4.17
2023-02-09T16:30:58.826Z,4.17
2023-02-09T16:31:58.780Z,4.10
2023-02-09T16:32:58.771Z,4.07
2023-02-09T16:33:58.766Z,4.05
2023-02-09T16:35:14.614Z,4.02
2023-02-09T16:35:58.741Z,4.01
2023-02-09T16:36:58.729Z,3.93
2023-02-09T16:37:58.720Z,3.90
2023-02-09T16:38:58.725Z,3.89
2023-02-09T16:39:58.706Z,3.86
2023-02-09T16:40:58.680Z,3.84
2023-02-09T16:41:58.669Z,3.80
2023-02-09T16:42:58.688Z,3.79
2023-02-09T16:43:58.657Z,3.75
2023-02-09T16:44:58.647Z,3.72
2023-02-09T16:46:03.634Z,3.71
2023-02-09T16:46:58.736Z,3.68
2023-02-09T16:47:59.548Z,3.65
2023-02-09T16:48:58.606Z,3.62
2023-02-09T16:49:58.594Z,3.62
2023-02-09T16:50:58.587Z,3.62
2023-02-09T16:51:58.572Z,3.58
2023-02-09T16:52:58.571Z,3.58
2023-02-09T16:53:58.543Z,3.55
2023-02-09T16:54:58.576Z,3.58
2023-02-09T16:55:58.524Z,3.62
2023-02-09T16:56:58.524Z,3.63
2023-02-09T16:57:58.499Z,3.62
2023-02-09T16:58:58.527Z,3.61
2023-02-09T16:59:58.498Z,3.61
2023-02-09T17:00:58.538Z,3.62
2023-02-09T17:01:58.478Z,3.59
2023-02-09T17:02:58.443Z,3.55
2023-02-09T17:03:58.433Z,3.53
2023-02-09T17:04:58.423Z,3.51
2023-02-09T17:05:58.413Z,3.47
2023-02-09T17:06:58.410Z,3.45
2023-02-09T17:07:58.396Z,3.43
2023-02-09T17:08:58.398Z,3.44
2023-02-09T17:09:58.378Z,3.44
2023-02-09T17:10:58.402Z,3.40
2023-02-09T17:11:58.353Z,3.36
2023-02-09T17:12:58.359Z,3.37
2023-02-09T17:13:58.326Z,3.40
2023-02-09T17:14:58.321Z,3.40
2023-02-09T17:15:58.337Z,3.40
2023-02-09T17:16:58.300Z,3.41
2023-02-09T17:18:00.293Z,3.41
2023-02-09T17:18:58.274Z,3.40
2023-02-09T17:19:58.264Z,3.40
2023-02-09T17:20:58.268Z,3.40
2023-02-09T17:21:58.236Z,3.41
2023-02-09T17:22:58.240Z,3.40
2023-02-09T17:23:58.212Z,3.41
2023-02-09T17:24:58.291Z,3.40
2023-02-09T17:25:58.197Z,3.40
2023-02-09T17:26:58.212Z,3.37
2023-02-09T17:27:58.236Z,3.36
2023-02-09T17:28:58.174Z,3.33
2023-02-09T17:29:58.226Z,3.33
2023-02-09T17:30:58.176Z,3.40
2023-02-09T17:31:58.215Z,3.36
2023-02-09T17:32:58.112Z,3.33
2023-02-09T17:33:58.121Z,3.33
2023-02-09T17:34:58.101Z,3.36
2023-02-09T17:36:25.728Z,3.40
2023-02-09T17:36:58.079Z,3.43
2023-02-09T17:37:58.065Z,3.37
2023-02-09T17:38:58.122Z,3.36
2023-02-09T17:39:58.041Z,3.35
2023-02-09T17:40:58.025Z,3.36
2023-02-09T17:41:58.024Z,3.37
2023-02-09T17:42:58.029Z,3.37
2023-02-09T17:43:58.774Z,3.40
2023-02-09T17:44:58.034Z,3.40
2023-02-09T17:45:58.034Z,3.35
2023-02-09T17:46:57.956Z,3.35
2023-02-09T17:47:57.961Z,3.35
2023-02-09T17:48:57.936Z,3.32
2023-02-09T17:49:57.945Z,3.32
2023-02-09T17:50:58.388Z,3.33
2023-02-09T17:51:57.919Z,3.32
2023-02-09T17:52:57.900Z,3.27
2023-02-09T17:53:57.887Z,3.29
2023-02-09T17:54:57.873Z,3.26
2023-02-09T17:55:57.859Z,3.25
2023-02-09T17:56:57.853Z,3.26
2023-02-09T17:57:57.841Z,3.25
2023-02-09T17:58:57.850Z,3.22
2023-02-09T17:59:57.825Z,3.20
2023-02-09T18:00:57.952Z,3.20
2023-02-09T18:01:57.804Z,3.18
2023-02-09T18:02:57.834Z,3.18
2023-02-09T18:03:57.770Z,3.18
2023-02-09T18:04:57.768Z,3.20
2023-02-09T18:05:57.772Z,3.20
2023-02-09T18:06:58.015Z,3.20
2023-02-09T18:07:57.735Z,3.20
2023-02-09T18:08:57.726Z,3.18
2023-02-09T18:09:57.703Z,3.20
2023-02-09T18:10:57.707Z,3.17
2023-02-09T18:11:57.724Z,3.15
2023-02-09T18:12:57.668Z,3.15
2023-02-09T18:13:57.662Z,3.18
2023-02-09T18:14:57.674Z,3.15
2023-02-09T18:15:57.668Z,3.11
2023-02-09T18:16:57.773Z,3.09
2023-02-09T18:17:57.614Z,3.05
2023-02-09T18:18:57.615Z,3.02
2023-02-09T18:19:57.597Z,2.99
2023-02-09T18:20:57.607Z,2.93
2023-02-09T18:21:57.590Z,2.94
2023-02-09T18:22:57.555Z,2.94
2023-02-09T18:23:57.557Z,2.91
2023-02-09T18:24:57.534Z,2.91
2023-02-09T18:25:57.529Z,2.90
2023-02-09T18:26:57.533Z,2.96
2023-02-09T18:27:57.557Z,2.97
2023-02-09T18:28:57.494Z,2.94
2023-02-09T18:29:57.497Z,2.89
2023-02-09T18:30:57.584Z,2.82
2023-02-09T18:31:57.466Z,2.81
2023-02-09T18:32:57.458Z,2.79
2023-02-09T18:33:57.552Z,2.81
2023-02-09T18:34:57.429Z,2.78
2023-02-09T18:35:57.408Z,2.75
2023-02-09T18:36:57.468Z,2.76
2023-02-09T18:37:57.393Z,2.78
2023-02-09T18:38:57.382Z,2.76
2023-02-09T18:39:57.378Z,2.73
2023-02-09T18:40:57.355Z,2.71
2023-02-09T18:41:57.361Z,2.68
2023-02-09T18:42:57.330Z,2.65
2023-02-09T18:43:57.343Z,2.65
2023-02-09T18:44:57.313Z,2.68
2023-02-09T18:45:57.362Z,2.64
2023-02-09T18:46:57.344Z,2.59
2023-02-09T18:47:57.279Z,2.59
2023-02-09T18:48:57.260Z,2.62
2023-02-09T18:49:57.253Z,2.64
2023-02-09T18:50:57.248Z,2.65
2023-02-09T18:51:57.244Z,2.64
2023-02-09T18:52:57.235Z,2.62
2023-02-09T18:53:57.202Z,2.60
2023-02-09T18:54:57.202Z,2.56
2023-02-09T18:55:57.194Z,2.53
2023-02-09T18:56:57.187Z,2.49
2023-02-09T18:57:57.212Z,2.54
2023-02-09T18:58:57.206Z,2.59
2023-02-09T18:59:57.139Z,2.57
2023-02-09T19:00:57.149Z,2.52
2023-02-09T19:01:57.291Z,2.50
2023-02-09T19:02:57.247Z,2.54
2023-02-09T19:03:57.102Z,2.53
2023-02-09T19:04:57.084Z,2.50
2023-02-09T19:05:57.069Z,2.47
2023-02-09T19:06:57.064Z,2.46
2023-02-09T19:07:57.088Z,2.39
2023-02-09T19:08:57.047Z,2.41
2023-02-09T19:09:59.031Z,2.44
2023-02-09T19:10:57.016Z,2.42
2023-02-09T19:11:57.007Z,2.44
2023-02-09T19:12:56.999Z,2.44
2023-02-09T19:13:57.003Z,2.42
2023-02-09T19:14:56.980Z,2.41
2023-02-09T19:15:56.976Z,2.44
2023-02-09T19:16:56.954Z,2.42
2023-02-09T19:17:57.116Z,2.42
2023-02-09T19:18:56.949Z,2.38
2023-02-09T19:19:56.929Z,2.39
2023-02-09T19:20:56.919Z,2.41
2023-02-09T19:21:56.902Z,2.36
2023-02-09T19:22:56.909Z,2.38
2023-02-09T19:23:56.886Z,2.39
2023-02-09T19:24:56.889Z,2.39
2023-02-09T19:25:56.856Z,2.39
2023-02-09T19:26:56.896Z,2.39
2023-02-09T19:27:56.905Z,2.36
2023-02-09T19:28:56.828Z,2.38
2023-02-09T19:29:56.810Z,2.36
2023-02-09T19:30:56.874Z,2.42
2023-02-09T19:31:56.789Z,2.41
2023-02-09T19:32:56.780Z,2.39
2023-02-09T19:33:56.773Z,2.36
2023-02-09T19:34:56.791Z,2.36
2023-02-09T19:35:56.748Z,2.38
2023-02-09T19:36:56.741Z,2.38
2023-02-09T19:37:56.724Z,2.36
2023-02-09T19:38:56.719Z,2.38
2023-02-09T19:39:56.706Z,2.35
2023-02-09T19:41:09.730Z,2.29
2023-02-09T19:41:56.676Z,2.24
2023-02-09T19:42:56.670Z,2.21
2023-02-09T19:43:56.667Z,2.20
2023-02-09T19:44:56.641Z,2.17
2023-02-09T19:45:56.634Z,2.13
2023-02-09T19:46:56.622Z,2.14
2023-02-09T19:47:56.665Z,2.13
2023-02-09T19:48:56.611Z,2.10
2023-02-09T19:49:56.594Z,2.09
2023-02-09T19:50:56.611Z,2.09
2023-02-09T19:51:56.574Z,2.10
2023-02-09T19:52:56.567Z,2.11
2023-02-09T19:53:56.549Z,2.11
2023-02-09T19:54:57.779Z,2.10
2023-02-09T19:55:56.529Z,2.13
2023-02-09T19:56:56.519Z,2.11
2023-02-09T19:57:56.606Z,2.11
2023-02-09T19:58:56.504Z,2.10
2023-02-09T19:59:56.482Z,2.09
2023-02-09T20:00:56.491Z,2.06
2023-02-09T20:01:56.571Z,2.06
2023-02-09T20:02:56.508Z,2.06
2023-02-09T20:03:56.436Z,2.05
2023-02-09T20:04:56.431Z,2.05
2023-02-09T20:05:56.423Z,2.06
2023-02-09T20:06:56.421Z,2.06
2023-02-09T20:07:56.401Z,2.03
2023-02-09T20:08:56.400Z,2.02
2023-02-09T20:09:56.380Z,2.00
2023-02-09T20:10:56.354Z,2.02
2023-02-09T20:12:56.357Z,2.09
2023-02-09T20:13:56.327Z,2.06
2023-02-09T20:14:56.308Z,2.03
2023-02-09T20:15:56.339Z,1.99
2023-02-09T20:16:56.295Z,1.96
2023-02-09T20:17:56.299Z,1.95
2023-02-09T20:18:56.266Z,1.92
2023-02-09T20:19:56.286Z,1.87
2023-02-09T20:20:56.239Z,1.87
2023-02-09T20:21:56.244Z,1.85
2023-02-09T20:22:56.315Z,1.84
2023-02-09T20:23:56.234Z,1.81
2023-02-09T20:24:56.213Z,1.78
2023-02-09T20:25:56.187Z,1.77
2023-02-09T20:26:56.181Z,1.80
2023-02-09T20:27:56.245Z,1.80
2023-02-09T20:28:56.159Z,1.80
2023-02-09T20:29:56.159Z,1.77
2023-02-09T20:30:56.152Z,1.77
2023-02-09T20:31:56.252Z,1.80
2023-02-09T20:32:56.117Z,1.80
2023-02-09T20:33:56.106Z,1.80
2023-02-09T20:34:56.097Z,1.80
2023-02-09T20:35:56.081Z,1.81
2023-02-09T20:36:56.072Z,1.78
2023-02-09T20:37:56.055Z,1.78
2023-02-09T20:38:56.080Z,1.77
2023-02-09T20:39:56.049Z,1.75
2023-02-09T20:40:56.034Z,1.75
2023-02-09T20:41:56.019Z,1.75
2023-02-09T20:42:56.016Z,1.73
2023-02-09T20:43:55.997Z,1.71
2023-02-09T20:44:55.991Z,1.69
2023-02-09T20:45:56.043Z,1.71
2023-02-09T20:46:56.054Z,1.71
2023-02-09T20:47:55.949Z,1.71
2023-02-09T20:48:55.943Z,1.73
2023-02-09T20:49:55.949Z,1.69
2023-02-09T20:50:55.920Z,1.67
2023-02-09T20:51:55.938Z,1.66
2023-02-09T20:52:55.895Z,1.66
2023-02-09T20:53:55.882Z,1.63
2023-02-09T20:54:55.900Z,1.63
2023-02-09T20:55:55.862Z,1.62
2023-02-09T20:56:55.866Z,1.62
2023-02-09T20:57:55.850Z,1.60
2023-02-09T20:58:55.841Z,1.60
2023-02-09T20:59:55.827Z,1.60
2023-02-09T21:00:55.860Z,1.59
2023-02-09T21:01:55.801Z,1.60
2023-02-09T21:02:55.864Z,1.60
2023-02-09T21:03:55.774Z,1.59
2023-02-09T21:04:55.782Z,1.60
2023-02-09T21:05:55.754Z,1.62
2023-02-09T21:06:55.741Z,1.64
2023-02-09T21:07:55.743Z,1.66
2023-02-09T21:08:55.742Z,1.67